EDDW

Bremen Airport

Bremen, Germany
METAR EDDW 172120Z 08007KT CAVOK 00/M02 Q1036 NOSIG
Observed Flight Rules
Nov-17 @ 21:20 UTC (18 minutes ago) Visual Flight Rules
Wind Visibility Clouds
80° at 7 knots 10,000+ meters
  • Clear skies
Temperatures Readings
Current 0°C / 32°F
Dewpoint -2°C / 28°F
Humidity 87%
Altimeter 30.59" Hg
Pressure 1036 hPa
Elevation 5
METAR EDDW 172120Z 08007KT CAVOK 00/M02 Q1036 NOSIG
Observed Flight Rules
Nov-17 @ 21:20 UTC
(18 minutes ago)
VFR
Wind Visibility
80° at 7 knots 10,000+ meters
Clouds
  • Clear skies
Temperature Dewpoint
0°C / 32°F -2°C / 28°F
Humidity Altimeter Pressure
87% 30.59" Hg 1036 hPa